createdAt,value
2023-01-23T00:05:16.797Z,53.30
2023-01-23T00:11:22.204Z,55.20
2023-01-23T00:14:24.017Z,60.30
2023-01-23T00:20:27.849Z,56.70
2023-01-23T00:23:29.571Z,54.70
2023-01-23T00:29:33.918Z,56.90
2023-01-23T00:35:37.351Z,55.20
2023-01-23T00:41:41.179Z,55.70
2023-01-23T00:44:42.899Z,58.60
2023-01-23T00:47:44.439Z,56.40
2023-01-23T00:50:46.219Z,53.40
2023-01-23T00:56:49.533Z,57.10
2023-01-23T00:59:51.219Z,55.20
2023-01-23T01:02:52.920Z,57.90
2023-01-23T01:08:57.489Z,53.10
2023-01-23T01:11:59.116Z,59.40
2023-01-23T01:15:00.728Z,59.70
2023-01-23T01:18:02.856Z,56.50
2023-01-23T01:21:09.527Z,54.80
2023-01-23T01:24:11.277Z,59.70
2023-01-23T01:27:13.149Z,56.00
2023-01-23T01:33:17.339Z,57.90
2023-01-23T01:36:21.421Z,58.20
2023-01-23T01:39:23.091Z,57.90
2023-01-23T01:46:03.978Z,56.30
2023-01-23T01:49:19.364Z,58.40
2023-01-23T01:52:22.557Z,58.20
2023-01-23T01:55:24.138Z,58.20
2023-01-23T01:58:27.729Z,56.90
2023-01-23T02:01:29.789Z,53.20
2023-01-23T02:04:34.210Z,53.70
2023-01-23T02:07:49.928Z,57.40
2023-01-23T02:10:52.204Z,62.70
2023-01-23T02:13:53.854Z,57.50
2023-01-23T02:16:55.540Z,56.20
2023-01-23T02:19:59.871Z,53.70
2023-01-23T02:23:08.412Z,60.70
2023-01-23T02:26:16.682Z,60.80
2023-01-23T02:29:18.324Z,61.90
2023-01-23T02:32:23.618Z,59.80
2023-01-23T02:35:29.135Z,54.90
2023-01-23T02:38:33.093Z,57.80
2023-01-23T02:41:40.932Z,51.00
2023-01-23T02:44:42.536Z,58.40
2023-01-23T02:47:44.179Z,59.20
2023-01-23T02:50:46.015Z,58.50
2023-01-23T02:56:49.850Z,49.00
2023-01-23T02:59:51.527Z,52.10
2023-01-23T03:02:53.269Z,55.20
2023-01-23T03:05:55.182Z,53.10
2023-01-23T03:08:56.998Z,51.50
2023-01-23T03:11:58.772Z,51.90
2023-01-23T03:18:01.934Z,49.10
2023-01-23T03:21:05.236Z,49.90
2023-01-23T03:24:09.147Z,49.90
2023-01-23T03:27:10.896Z,53.90
2023-01-23T03:33:14.427Z,51.20
2023-01-23T03:36:16.025Z,54.00
2023-01-23T03:39:17.638Z,52.80
2023-01-23T03:45:21.120Z,54.40
2023-01-23T03:48:22.832Z,50.60
2023-01-23T03:51:24.561Z,51.00
2023-01-23T03:57:28.024Z,49.60
2023-01-23T04:00:29.592Z,50.40
2023-01-23T04:03:31.461Z,53.80
2023-01-23T04:09:34.789Z,52.00
2023-01-23T04:12:36.337Z,49.50
2023-01-23T04:15:38.053Z,49.10
2023-01-23T04:18:39.720Z,50.00
2023-01-23T04:21:41.336Z,51.20
2023-01-23T04:24:42.896Z,52.60
2023-01-23T04:27:44.421Z,49.70
2023-01-23T04:30:46.651Z,48.90
2023-01-23T04:33:48.313Z,50.10
2023-01-23T04:36:49.979Z,45.20
2023-01-23T04:39:51.591Z,49.30
2023-01-23T04:42:53.394Z,49.60
2023-01-23T04:45:56.491Z,49.00
2023-01-23T04:48:58.143Z,47.10
2023-01-23T04:51:59.867Z,44.70
2023-01-23T04:58:03.181Z,45.50
2023-01-23T05:04:07.311Z,38.70
2023-01-23T05:07:09.502Z,38.80
2023-01-23T05:10:11.508Z,37.50
2023-01-23T05:13:13.091Z,39.20
2023-01-23T05:16:14.858Z,40.50
2023-01-23T05:22:18.083Z,41.40
2023-01-23T05:25:22.081Z,44.10
2023-01-23T05:28:23.658Z,39.60
2023-01-23T05:34:26.910Z,41.40
2023-01-23T05:37:28.478Z,46.40
2023-01-23T05:40:30.131Z,47.00
2023-01-23T05:43:31.842Z,48.40
2023-01-23T05:46:33.680Z,47.70
2023-01-23T05:52:36.866Z,44.80
2023-01-23T05:55:39.180Z,39.60
2023-01-23T05:58:41.212Z,41.40
2023-01-23T06:01:42.827Z,39.10
2023-01-23T06:04:47.476Z,39.40
2023-01-23T06:07:49.120Z,43.70
2023-01-23T06:10:51.076Z,45.60
2023-01-23T06:13:52.732Z,51.90
2023-01-23T06:19:56.015Z,54.00
2023-01-23T06:22:57.660Z,55.30
2023-01-23T06:26:00.782Z,40.50
2023-01-23T06:29:02.487Z,43.70
2023-01-23T06:35:06.803Z,44.40
2023-01-23T06:38:08.394Z,44.60
2023-01-23T06:44:11.951Z,46.70
2023-01-23T06:50:16.812Z,44.10
2023-01-23T06:53:19.086Z,46.80
2023-01-23T06:56:20.698Z,44.90
2023-01-23T06:59:22.366Z,45.10
2023-01-23T07:02:24.076Z,41.10
2023-01-23T07:08:27.341Z,37.60
2023-01-23T07:11:29.148Z,40.60
2023-01-23T07:14:30.753Z,44.10
2023-01-23T07:17:32.410Z,43.50
2023-01-23T07:20:34.110Z,46.40
2023-01-23T07:26:37.585Z,40.00
2023-01-23T07:29:39.235Z,44.20
2023-01-23T07:32:41.383Z,43.10
2023-01-23T07:35:42.995Z,43.80
2023-01-23T07:41:46.590Z,39.60
2023-01-23T07:44:48.219Z,43.10
2023-01-23T07:47:49.977Z,43.10
2023-01-23T07:50:51.689Z,43.20
2023-01-23T07:56:55.040Z,47.50
2023-01-23T07:59:56.683Z,46.50
2023-01-23T08:02:58.289Z,45.60
2023-01-23T08:09:01.605Z,50.20
2023-01-23T08:12:03.316Z,45.90
2023-01-23T08:18:07.173Z,43.80
2023-01-23T08:24:14.119Z,42.70
2023-01-23T08:27:15.742Z,45.70
2023-01-23T08:30:17.949Z,44.60
2023-01-23T08:33:20.869Z,34.70
2023-01-23T08:36:22.923Z,37.10
2023-01-23T08:39:24.653Z,33.10
2023-01-23T08:42:26.455Z,34.30
2023-01-23T08:48:29.625Z,26.30
2023-01-23T08:51:31.607Z,25.80
2023-01-23T08:54:33.576Z,25.40
2023-01-23T08:57:35.256Z,23.10
2023-01-23T09:03:38.448Z,22.80
2023-01-23T09:06:40.279Z,23.60
2023-01-23T09:09:41.953Z,24.90
2023-01-23T09:15:45.866Z,26.90
2023-01-23T09:18:47.729Z,26.80
2023-01-23T09:21:49.456Z,28.40
2023-01-23T09:27:52.726Z,25.90
2023-01-23T09:30:54.561Z,34.40
2023-01-23T09:33:56.300Z,33.80
2023-01-23T09:39:59.309Z,26.40
2023-01-23T09:43:17.677Z,26.40
2023-01-23T09:46:23.916Z,33.40
2023-01-23T09:49:44.211Z,25.40
2023-01-23T09:52:51.660Z,88.90
2023-01-23T09:56:12.696Z,121.10
2023-01-23T09:59:31.621Z,86.30
2023-01-23T10:02:34.160Z,59.20
2023-01-23T10:05:58.375Z,58.20
2023-01-23T10:09:16.019Z,43.00
2023-01-23T10:12:29.428Z,30.00
2023-01-23T10:15:59.493Z,37.60
2023-01-23T10:19:04.070Z,35.20
2023-01-23T10:22:29.304Z,35.50
2023-01-23T10:25:33.358Z,31.50
2023-01-23T10:28:37.602Z,26.30
2023-01-23T10:31:53.040Z,23.70
2023-01-23T10:35:02.261Z,25.70
2023-01-23T10:38:23.327Z,25.40
2023-01-23T10:41:25.051Z,25.90
2023-01-23T10:47:35.727Z,28.60
2023-01-23T10:50:38.545Z,28.70
2023-01-23T10:53:40.302Z,30.00
2023-01-23T11:00:01.947Z,34.00
2023-01-23T11:03:22.065Z,32.20
2023-01-23T11:06:24.343Z,31.50
2023-01-23T11:09:25.963Z,33.10
2023-01-23T11:15:32.880Z,30.20
2023-01-23T11:18:36.109Z,31.20
2023-01-23T11:21:55.042Z,31.00
2023-01-23T11:24:56.838Z,30.20
2023-01-23T11:28:12.863Z,32.30
2023-01-23T11:31:24.680Z,31.30
2023-01-23T11:34:50.457Z,32.00
2023-01-23T11:37:53.840Z,33.80
2023-01-23T11:40:55.611Z,34.80
2023-01-23T11:43:57.358Z,38.60
2023-01-23T11:50:16.394Z,36.10
2023-01-23T11:53:36.800Z,35.80
2023-01-23T11:57:08.261Z,32.00
2023-01-23T12:00:24.957Z,31.90
2023-01-23T12:03:55.665Z,34.70
2023-01-23T12:07:19.327Z,34.60
2023-01-23T12:10:26.750Z,34.50
2023-01-23T12:13:57.820Z,33.60
2023-01-23T12:17:10.467Z,37.00
2023-01-23T12:20:30.162Z,34.60
2023-01-23T12:23:42.751Z,34.50
2023-01-23T12:27:00.364Z,34.80
2023-01-23T12:30:08.004Z,34.80
2023-01-23T12:33:40.877Z,36.20
2023-01-23T12:37:31.139Z,33.60
2023-01-23T12:41:21.111Z,37.00
2023-01-23T12:44:43.489Z,35.10
2023-01-23T12:47:52.411Z,36.70
2023-01-23T12:51:02.309Z,39.10
2023-01-23T12:54:07.011Z,41.30
2023-01-23T12:57:09.917Z,43.50
2023-01-23T13:00:33.398Z,41.70
2023-01-23T13:03:46.728Z,40.60
2023-01-23T13:07:00.596Z,39.70
2023-01-23T13:10:17.636Z,37.60
2023-01-23T13:13:20.584Z,35.30
2023-01-23T13:16:31.686Z,36.20
2023-01-23T13:19:40.493Z,33.70
2023-01-23T13:22:42.304Z,32.70
2023-01-23T13:28:48.954Z,34.90
2023-01-23T13:31:50.925Z,35.80
2023-01-23T13:34:52.802Z,37.50
2023-01-23T13:37:54.306Z,35.90
2023-01-23T13:41:02.139Z,38.40
2023-01-23T13:44:05.462Z,42.90
2023-01-23T14:20:25.329Z,37.50
2023-01-23T14:23:31.035Z,40.30
2023-01-23T14:26:35.035Z,38.50
2023-01-23T14:29:36.762Z,41.50
2023-01-23T14:35:40.073Z,37.40
2023-01-23T14:38:43.700Z,35.50
2023-01-23T14:41:47.612Z,32.70
2023-01-23T14:44:50.474Z,36.80
2023-01-23T14:48:04.665Z,35.80
2023-01-23T14:51:15.102Z,35.80
2023-01-23T14:54:22.920Z,36.30
2023-01-23T14:57:26.287Z,36.80
2023-01-23T15:00:28.620Z,38.40
2023-01-23T15:03:44.978Z,40.60
2023-01-23T15:06:52.210Z,44.10
2023-01-23T15:09:53.876Z,41.10
2023-01-23T15:16:02.685Z,40.40
2023-01-23T15:19:07.643Z,38.20
2023-01-23T15:22:21.961Z,38.10
2023-01-23T15:25:31.107Z,37.30
2023-01-23T15:28:38.841Z,40.30
2023-01-23T15:31:40.620Z,39.00
2023-01-23T15:34:54.777Z,38.10
2023-01-23T15:37:56.778Z,44.00
2023-01-23T15:40:58.444Z,47.20
2023-01-23T15:47:01.506Z,47.90
2023-01-23T15:50:03.412Z,49.80
2023-01-23T15:53:11.592Z,47.10
2023-01-23T15:56:27.462Z,42.40
2023-01-23T15:59:33.561Z,43.30
2023-01-23T16:02:39.398Z,48.20
2023-01-23T16:05:46.381Z,44.70
2023-01-23T16:08:55.107Z,43.90
2023-01-23T16:12:03.112Z,41.40
2023-01-23T16:15:25.529Z,37.80
2023-01-23T16:18:27.181Z,42.40
2023-01-23T16:21:29.880Z,39.80
2023-01-23T16:24:36.518Z,43.20
2023-01-23T16:27:38.324Z,37.70
2023-01-23T16:33:41.555Z,36.70
2023-01-23T16:36:43.327Z,37.90
2023-01-23T16:39:46.540Z,33.60
2023-01-23T16:42:49.369Z,42.80
2023-01-23T16:45:51.792Z,38.10
2023-01-23T16:48:54.578Z,37.30
2023-01-23T16:55:01.695Z,36.40
2023-01-23T16:58:06.325Z,35.00
2023-01-23T17:01:18.141Z,40.60
2023-01-23T17:04:21.000Z,69.90
2023-01-23T17:07:23.127Z,89.60
2023-01-23T17:13:36.427Z,42.10
2023-01-23T17:16:38.194Z,42.30
2023-01-23T17:19:41.321Z,44.20
2023-01-23T17:22:43.792Z,40.70
2023-01-23T17:25:59.326Z,49.10
2023-01-23T17:29:02.261Z,57.20
2023-01-23T17:32:04.168Z,52.60
2023-01-23T17:35:08.488Z,50.80
2023-01-23T17:38:25.265Z,61.20
2023-01-23T17:41:27.062Z,50.00
2023-01-23T17:44:28.648Z,54.70
2023-01-23T17:47:32.119Z,56.40
2023-01-23T17:50:33.728Z,54.90
2023-01-23T17:53:35.375Z,61.70
2023-01-23T17:56:37.017Z,62.00
2023-01-23T17:59:38.632Z,44.70
2023-01-23T18:02:40.806Z,54.00
2023-01-23T18:05:42.635Z,67.10
2023-01-23T18:11:49.548Z,68.20
2023-01-23T18:14:58.177Z,64.50
2023-01-23T18:18:19.109Z,71.60
2023-01-23T18:21:21.347Z,68.30
2023-01-23T18:24:28.846Z,71.40
2023-01-23T18:27:32.638Z,58.20
2023-01-23T18:30:48.040Z,45.50
2023-01-23T18:33:55.702Z,41.40
2023-01-23T18:37:09.295Z,44.40
2023-01-23T18:40:35.672Z,38.80
2023-01-23T18:43:39.272Z,38.80
2023-01-23T18:46:41.042Z,50.90
2023-01-23T18:49:43.262Z,57.20
2023-01-23T18:53:22.996Z,64.70
2023-01-23T18:56:35.020Z,69.70
2023-01-23T19:00:09.800Z,80.80
2023-01-23T19:03:16.511Z,82.50
2023-01-23T19:06:19.519Z,79.30
2023-01-23T19:09:21.976Z,70.20
2023-01-23T19:12:54.593Z,80.50
2023-01-23T19:16:15.329Z,66.80
2023-01-23T19:19:32.948Z,52.10
2023-01-23T19:22:49.202Z,49.70
2023-01-23T19:25:50.944Z,55.90
2023-01-23T19:32:09.692Z,44.80
2023-01-23T19:35:16.338Z,47.50
2023-01-23T19:38:18.010Z,45.70
2023-01-23T19:41:24.470Z,43.20
2023-01-23T19:44:26.595Z,43.80
2023-01-23T19:47:28.740Z,46.40
2023-01-23T19:50:30.280Z,47.50
2023-01-23T19:53:31.970Z,45.40
2023-01-23T19:56:33.516Z,40.40
2023-01-23T19:59:35.298Z,48.70
2023-01-23T20:02:36.852Z,44.30
2023-01-23T20:05:38.700Z,53.40
2023-01-23T20:11:43.152Z,47.30
2023-01-23T20:14:44.937Z,51.40
2023-01-23T20:20:48.245Z,41.70
2023-01-23T20:29:53.490Z,43.30
2023-01-23T20:32:55.114Z,46.50
2023-01-23T20:35:56.934Z,50.50
2023-01-23T20:42:00.141Z,46.50
2023-01-23T20:48:06.587Z,42.20
2023-01-23T20:51:09.727Z,50.60
2023-01-23T20:54:11.607Z,51.60
2023-01-23T21:00:15.672Z,51.10
2023-01-23T21:03:17.296Z,45.60
2023-01-23T21:06:19.874Z,43.80
2023-01-23T21:09:21.523Z,43.50
2023-01-23T21:15:24.824Z,39.60
2023-01-23T21:21:28.132Z,40.40
2023-01-23T21:27:31.207Z,38.00
2023-01-23T21:30:32.863Z,41.30
2023-01-23T21:33:34.641Z,41.90
2023-01-23T21:39:39.506Z,44.60
2023-01-23T21:42:41.106Z,54.00
2023-01-23T21:45:42.658Z,57.20
2023-01-23T21:48:44.268Z,54.60
2023-01-23T21:51:45.944Z,54.30
2023-01-23T21:54:47.454Z,51.50
2023-01-23T21:57:49.894Z,51.20
2023-01-23T22:00:58.780Z,57.80
2023-01-23T22:04:04.535Z,57.80
2023-01-23T22:07:06.095Z,48.00
2023-01-23T22:13:09.587Z,48.30
2023-01-23T22:16:11.246Z,46.10
2023-01-23T22:22:18.606Z,45.30
2023-01-23T22:25:20.455Z,44.50
2023-01-23T22:28:22.877Z,43.90
2023-01-23T22:31:24.511Z,50.30
2023-01-23T22:37:29.445Z,41.50
2023-01-23T22:40:31.159Z,40.80
2023-01-23T22:46:35.049Z,42.30
2023-01-23T22:52:38.050Z,39.20
2023-01-23T22:55:39.632Z,41.50
2023-01-23T22:58:45.389Z,42.50
2023-01-23T23:01:47.038Z,41.50
2023-01-23T23:04:48.680Z,39.20
2023-01-23T23:07:50.237Z,39.20
2023-01-23T23:10:58.811Z,39.00
2023-01-23T23:14:00.374Z,37.90
2023-01-23T23:17:01.892Z,39.50
2023-01-23T23:20:03.781Z,37.90
2023-01-23T23:23:05.474Z,39.20
2023-01-23T23:29:10.881Z,39.20
2023-01-23T23:32:12.514Z,40.10
2023-01-23T23:38:16.002Z,45.70
2023-01-23T23:41:17.787Z,41.90
2023-01-23T23:47:20.888Z,38.80
2023-01-23T23:50:22.815Z,41.10
2023-01-23T23:53:24.409Z,40.60
2023-01-23T23:56:27.979Z,38.30
2023-01-23T23:59:29.841Z,39.90
